sim
Sign-in with your pilot id or email,
or register
Callsign
Passwort

Schedule Details

Flight Number: RYR3805 (2)
Departure: Manchester Airport (EGCC) at 07:15
Arrival: Fuerteventura Airport (GCFV) at 11:30
Route: Ryanair Passenger Schedule. Enter filed route here before submitting Pirep.

Weather Information
Getting current METAR information for EGCC 160320Z AUTO 18006KT 120V220 9999 SCT029 09/06 Q1017 NOSIG
Getting current METAR information for GCFV 160330Z AUTO 28005KT 9999 NCD 14/11 Q1017

Schedule Frequency

Route Map